Candy Machine — WDB5898 — position and weather

sailwx.info

Track history (hours):
 
Tides and Currents Weather Stations Pressure Air Temp Water Temp Dewpoint Dewpoint Depression Visibility Wind Speed Wind Dir Waves Ship Positions

Candy Machine

Owner: CANDY MACHINE LLC, MORGAN CITY, LA. More information available from US FCC via Universal Licensing System and Coast Guard Vessel Documentation Center.

Last reported at 2017-Nov-23 05:00 UTC. Time now 2017-Nov-23 05:13 UTC.
Position N 29°46' W 092°11'.

Length 40 m; draft 2 m.

Type: Passenger vessel. MMSI: 366914770.

Date/timePositionNaut miles runAvg speedWind from/ knotsBaromVisibWave heightAir tempDewpointWater temp
2017-Nov-23 05:00N 29°46' W 092°11'5 9.8
2017-Nov-23 04:30N 29°43' W 092°15'  
2017-Nov-19 18:03N 29°41' W 092°15'0 9.7
2017-Nov-19 18:00N 29°41' W 092°15'4 8.1
2017-Nov-19 17:30N 29°45' W 092°13'2 4.9
2017-Nov-19 17:00N 29°47' W 092°11'0 0.1
2017-Nov-19 16:30N 29°47' W 092°11'0 0.0
2017-Nov-19 16:01N 29°47' W 092°11'0 0.1
2017-Nov-19 15:30N 29°47' W 092°11'3 6.5
2017-Nov-19 15:01N 29°44' W 092°14'5 9.5
2017-Nov-19 14:30N 29°40' W 092°15'  
2017-Nov-16 20:52N 29°42' W 092°15'3 9.1
2017-Nov-16 20:30N 29°45' W 092°13'4 7.2
2017-Nov-16 20:00N 29°47' W 092°09'1 1.6
2017-Nov-16 19:30N 29°47' W 092°09'0 0.0
2017-Nov-16 19:00N 29°47' W 092°09'1 2.1
2017-Nov-16 18:30N 29°47' W 092°10'1 0.1
2017-Nov-16 08:44N 29°47' W 092°11'0 0.5
2017-Nov-16 08:30N 29°47' W 092°11'0 0.0
2017-Nov-16 08:00N 29°47' W 092°11'0 0.2
2017-Nov-16 07:29N 29°47' W 092°11'0 0.0
2017-Nov-16 07:00N 29°47' W 092°11'0 0.0
2017-Nov-16 06:30N 29°47' W 092°11'0 0.0
2017-Nov-16 06:00N 29°47' W 092°11'0 0.0
2017-Nov-16 05:31N 29°47' W 092°11'0 0.0
2017-Nov-16 05:01N 29°47' W 092°11'0 0.0
2017-Nov-16 04:31N 29°47' W 092°11'0 0.0
2017-Nov-16 04:01N 29°47' W 092°11'0 0.0
2017-Nov-16 03:31N 29°47' W 092°11'1 1.4
2017-Nov-16 03:01N 29°47' W 092°10'611.2
2017-Nov-16 02:30N 29°42' W 092°15'  
Track history (hours):
 
Tides and Currents Weather Stations Pressure Air Temp Water Temp Dewpoint Dewpoint Depression Visibility Wind Speed Wind Dir Waves Ship Positions

Candy Machine

Owner: CANDY MACHINE LLC, MORGAN CITY, LA. More information available from US FCC via Universal Licensing System and Coast Guard Vessel Documentation Center.

Last reported at 2017-Nov-23 05:00 UTC. Time now 2017-Nov-23 05:13 UTC.
Position N 29°46' W 092°11'.

Length 40 m; draft 2 m.

Type: Passenger vessel. MMSI: 366914770.

Date/timePositionNaut miles runAvg speedWind from/ knotsBaromVisibWave heightAir tempDewpointWater temp
2017-Nov-23 05:00N 29°46' W 092°11'5 9.8
2017-Nov-23 04:30N 29°43' W 092°15'  
2017-Nov-19 18:03N 29°41' W 092°15'0 9.7
2017-Nov-19 18:00N 29°41' W 092°15'4 8.1
2017-Nov-19 17:30N 29°45' W 092°13'2 4.9
2017-Nov-19 17:00N 29°47' W 092°11'0 0.1
2017-Nov-19 16:30N 29°47' W 092°11'0 0.0
2017-Nov-19 16:01N 29°47' W 092°11'0 0.1
2017-Nov-19 15:30N 29°47' W 092°11'3 6.5
2017-Nov-19 15:01N 29°44' W 092°14'5 9.5
2017-Nov-19 14:30N 29°40' W 092°15'  
2017-Nov-16 20:52N 29°42' W 092°15'3 9.1
2017-Nov-16 20:30N 29°45' W 092°13'4 7.2
2017-Nov-16 20:00N 29°47' W 092°09'1 1.6
2017-Nov-16 19:30N 29°47' W 092°09'0 0.0
2017-Nov-16 19:00N 29°47' W 092°09'1 2.1
2017-Nov-16 18:30N 29°47' W 092°10'1 0.1
2017-Nov-16 08:44N 29°47' W 092°11'0 0.5
2017-Nov-16 08:30N 29°47' W 092°11'0 0.0
2017-Nov-16 08:00N 29°47' W 092°11'0 0.2
2017-Nov-16 07:29N 29°47' W 092°11'0 0.0
2017-Nov-16 07:00N 29°47' W 092°11'0 0.0
2017-Nov-16 06:30N 29°47' W 092°11'0 0.0
2017-Nov-16 06:00N 29°47' W 092°11'0 0.0
2017-Nov-16 05:31N 29°47' W 092°11'0 0.0
2017-Nov-16 05:01N 29°47' W 092°11'0 0.0
2017-Nov-16 04:31N 29°47' W 092°11'0 0.0
2017-Nov-16 04:01N 29°47' W 092°11'0 0.0
2017-Nov-16 03:31N 29°47' W 092°11'1 1.4
2017-Nov-16 03:01N 29°47' W 092°10'611.2
2017-Nov-16 02:30N 29°42' W 092°15'  

Dump ship's entire track history